EWG4ML EDDH-EKCH
Flight info
| Callsign | EWG4ML |
|---|---|
| Flight time | 0h 31m |
| Altitude | 23000 |
| Route | LUGEG3G LUGEG P605 GESKA/N0388F220 Z711 MONAK |
| Aircraft | A319/M-SDE3FGHIRWY/LB1 |
Departure
| Time | 2026-05-06 17:15 |
|---|---|
| Airport | Hamburg Helmut Schmidt Airport (EDDH) |
Arrival
| Time | 2026-05-06 17:47 |
|---|---|
| Airport | Copenhagen Kastrup Airport (EKCH) |
| Time | Latitude | Longitude | Altitude | Speed | Heading |
|---|---|---|---|---|---|
| 2026-05-06 16:48 | 53.62739 | 10.00311 | 47 ft | 0 kts | 64° |
| 2026-05-06 17:01 | 53.62733 | 10.00291 | 47 ft | 2 kts | 63° |
| 2026-05-06 17:01 | 53.62726 | 10.00269 | 46 ft | 2 kts | 64° |
| 2026-05-06 17:01 | 53.62720 | 10.00246 | 46 ft | 2 kts | 63° |
| 2026-05-06 17:02 | 53.62716 | 10.00222 | 46 ft | 2 kts | 91° |
| 2026-05-06 17:02 | 53.62718 | 10.00197 | 46 ft | 2 kts | 112° |
| 2026-05-06 17:02 | 53.62726 | 10.00176 | 46 ft | 2 kts | 135° |
| 2026-05-06 17:02 | 53.62734 | 10.00165 | 46 ft | 0 kts | 150° |
| 2026-05-06 17:03 | 53.62737 | 10.00162 | 46 ft | 0 kts | 156° |
| 2026-05-06 17:04 | 53.62735 | 10.00164 | 46 ft | 1 kts | 155° |
| 2026-05-06 17:04 | 53.62717 | 10.00179 | 46 ft | 4 kts | 152° |
| 2026-05-06 17:05 | 53.62680 | 10.00212 | 46 ft | 7 kts | 152° |
| 2026-05-06 17:05 | 53.62629 | 10.00255 | 46 ft | 8 kts | 155° |
| 2026-05-06 17:05 | 53.62576 | 10.00222 | 45 ft | 10 kts | 237° |
| 2026-05-06 17:05 | 53.62569 | 10.00200 | 45 ft | 0 kts | 242° |
| 2026-05-06 17:07 | 53.62567 | 10.00194 | 45 ft | 0 kts | 242° |
| 2026-05-06 17:13 | 53.62564 | 10.00185 | 45 ft | 2 kts | 242° |
| 2026-05-06 17:13 | 53.62549 | 10.00138 | 45 ft | 6 kts | 242° |
| 2026-05-06 17:13 | 53.62530 | 10.00076 | 44 ft | 2 kts | 244° |
| 2026-05-06 17:14 | 53.62530 | 10.00040 | 44 ft | 3 kts | 295° |
| 2026-05-06 17:14 | 53.62542 | 10.00024 | 44 ft | 0 kts | 335° |
| 2026-05-06 17:14 | 53.62543 | 10.00024 | 44 ft | 0 kts | 335° |
| 2026-05-06 17:15 | 53.62679 | 9.99908 | 48 ft | 57 kts | 333° |
| 2026-05-06 17:15 | 53.63269 | 9.99397 | 57 ft | 128 kts | 333° |
| 2026-05-06 17:15 | 53.64196 | 9.98590 | 320 ft | 159 kts | 337° |
| 2026-05-06 17:15 | 53.65160 | 9.97790 | 1095 ft | 155 kts | 338° |
| 2026-05-06 17:16 | 53.66076 | 9.96974 | 1858 ft | 153 kts | 340° |
| 2026-05-06 17:16 | 53.67054 | 9.96140 | 2375 ft | 168 kts | 341° |
| 2026-05-06 17:16 | 53.68166 | 9.95246 | 2876 ft | 186 kts | 343° |
| 2026-05-06 17:16 | 53.69447 | 9.94723 | 3432 ft | 196 kts | 0° |
| 2026-05-06 17:17 | 53.70861 | 9.94695 | 3970 ft | 213 kts | 5° |
| 2026-05-06 17:17 | 53.72310 | 9.94797 | 4860 ft | 212 kts | 13° |
| 2026-05-06 17:17 | 53.73621 | 9.95803 | 5673 ft | 211 kts | 43° |
| 2026-05-06 17:17 | 53.74493 | 9.97859 | 6218 ft | 227 kts | 62° |
| 2026-05-06 17:18 | 53.75220 | 10.00334 | 6756 ft | 245 kts | 64° |
| 2026-05-06 17:18 | 53.75964 | 10.02999 | 7318 ft | 261 kts | 64° |
| 2026-05-06 17:18 | 53.76747 | 10.05793 | 8085 ft | 269 kts | 64° |
| 2026-05-06 17:18 | 53.77558 | 10.08646 | 8914 ft | 274 kts | 62° |
| 2026-05-06 17:19 | 53.78608 | 10.11342 | 9701 ft | 280 kts | 51° |
| 2026-05-06 17:19 | 53.79855 | 10.13904 | 10409 ft | 288 kts | 49° |
| 2026-05-06 17:19 | 53.81169 | 10.16542 | 10853 ft | 305 kts | 49° |
| 2026-05-06 17:19 | 53.82569 | 10.19396 | 11408 ft | 318 kts | 50° |
| 2026-05-06 17:20 | 53.83959 | 10.22277 | 12165 ft | 323 kts | 50° |
| 2026-05-06 17:20 | 53.85376 | 10.25247 | 12919 ft | 327 kts | 50° |
| 2026-05-06 17:20 | 53.86794 | 10.28237 | 13616 ft | 331 kts | 50° |
| 2026-05-06 17:20 | 53.88224 | 10.31270 | 14316 ft | 336 kts | 50° |
| 2026-05-06 17:21 | 53.89685 | 10.34377 | 14970 ft | 341 kts | 51° |
| 2026-05-06 17:21 | 53.91161 | 10.37521 | 15570 ft | 346 kts | 51° |
| 2026-05-06 17:21 | 53.92661 | 10.40725 | 16203 ft | 351 kts | 50° |
| 2026-05-06 17:21 | 53.94190 | 10.43996 | 16820 ft | 355 kts | 51° |
| 2026-05-06 17:22 | 53.95715 | 10.47267 | 17413 ft | 360 kts | 51° |
| 2026-05-06 17:22 | 53.97287 | 10.50642 | 17955 ft | 366 kts | 51° |
| 2026-05-06 17:22 | 53.98861 | 10.54030 | 18521 ft | 370 kts | 51° |
| 2026-05-06 17:22 | 54.00458 | 10.57472 | 19092 ft | 375 kts | 51° |
| 2026-05-06 17:23 | 54.02065 | 10.60941 | 19681 ft | 378 kts | 51° |
| 2026-05-06 17:23 | 54.03696 | 10.64466 | 20282 ft | 381 kts | 51° |
| 2026-05-06 17:23 | 54.05329 | 10.67999 | 20875 ft | 383 kts | 52° |
| 2026-05-06 17:23 | 54.06978 | 10.71571 | 21443 ft | 386 kts | 52° |
| 2026-05-06 17:24 | 54.08626 | 10.75145 | 22012 ft | 389 kts | 52° |
| 2026-05-06 17:24 | 54.10297 | 10.78776 | 22550 ft | 392 kts | 52° |
| 2026-05-06 17:24 | 54.11988 | 10.82451 | 22861 ft | 394 kts | 52° |
| 2026-05-06 17:24 | 54.13667 | 10.86107 | 22888 ft | 394 kts | 52° |
| 2026-05-06 17:25 | 54.15342 | 10.89758 | 22890 ft | 394 kts | 52° |
| 2026-05-06 17:25 | 54.17030 | 10.93446 | 22893 ft | 394 kts | 52° |
| 2026-05-06 17:25 | 54.18712 | 10.97130 | 22895 ft | 394 kts | 52° |
| 2026-05-06 17:25 | 54.20389 | 11.00809 | 22894 ft | 394 kts | 52° |
| 2026-05-06 17:26 | 54.22068 | 11.04498 | 22892 ft | 394 kts | 52° |
| 2026-05-06 17:26 | 54.23745 | 11.08188 | 22893 ft | 394 kts | 52° |
| 2026-05-06 17:26 | 54.25428 | 11.11896 | 22894 ft | 394 kts | 52° |
| 2026-05-06 17:26 | 54.27081 | 11.15542 | 22895 ft | 395 kts | 52° |
| 2026-05-06 17:27 | 54.28772 | 11.19276 | 22900 ft | 395 kts | 52° |
| 2026-05-06 17:27 | 54.30435 | 11.22954 | 22899 ft | 395 kts | 52° |
| 2026-05-06 17:27 | 54.32116 | 11.26679 | 22903 ft | 396 kts | 52° |
| 2026-05-06 17:27 | 54.33787 | 11.30384 | 22901 ft | 395 kts | 52° |
| 2026-05-06 17:28 | 54.35475 | 11.34134 | 22899 ft | 395 kts | 52° |
| 2026-05-06 17:28 | 54.37146 | 11.37852 | 22901 ft | 395 kts | 52° |
| 2026-05-06 17:28 | 54.38813 | 11.41569 | 22902 ft | 396 kts | 52° |
| 2026-05-06 17:28 | 54.40496 | 11.45322 | 22902 ft | 396 kts | 51° |
| 2026-05-06 17:29 | 54.42160 | 11.49039 | 22905 ft | 396 kts | 51° |
| 2026-05-06 17:29 | 54.43844 | 11.52807 | 22904 ft | 396 kts | 51° |
| 2026-05-06 17:29 | 54.45500 | 11.56517 | 22905 ft | 396 kts | 51° |
| 2026-05-06 17:29 | 54.47168 | 11.60259 | 22901 ft | 396 kts | 51° |
| 2026-05-06 17:30 | 54.48845 | 11.64032 | 22907 ft | 397 kts | 51° |
| 2026-05-06 17:30 | 54.50513 | 11.67786 | 22903 ft | 396 kts | 52° |
| 2026-05-06 17:30 | 54.52168 | 11.71517 | 22660 ft | 390 kts | 52° |
| 2026-05-06 17:30 | 54.53783 | 11.75167 | 22131 ft | 390 kts | 52° |
| 2026-05-06 17:31 | 54.55423 | 11.78876 | 21596 ft | 389 kts | 52° |
| 2026-05-06 17:31 | 54.57055 | 11.82537 | 21122 ft | 386 kts | 50° |
| 2026-05-06 17:31 | 54.59067 | 11.85527 | 20597 ft | 382 kts | 26° |
| 2026-05-06 17:31 | 54.61492 | 11.87168 | 20164 ft | 376 kts | 15° |
| 2026-05-06 17:32 | 54.63980 | 11.88408 | 19704 ft | 373 kts | 14° |
| 2026-05-06 17:32 | 54.66480 | 11.89654 | 19243 ft | 372 kts | 15° |
| 2026-05-06 17:32 | 54.68917 | 11.90945 | 18813 ft | 369 kts | 15° |
| 2026-05-06 17:32 | 54.71367 | 11.92309 | 18377 ft | 367 kts | 16° |
| 2026-05-06 17:33 | 54.73758 | 11.93684 | 17961 ft | 364 kts | 17° |
| 2026-05-06 17:33 | 54.76147 | 11.95086 | 17543 ft | 362 kts | 17° |
| 2026-05-06 17:33 | 54.78522 | 11.96496 | 17139 ft | 359 kts | 17° |
| 2026-05-06 17:33 | 54.80856 | 11.97891 | 16752 ft | 356 kts | 17° |
| 2026-05-06 17:34 | 54.83185 | 11.99288 | 16357 ft | 353 kts | 17° |
| 2026-05-06 17:34 | 54.85464 | 12.00660 | 15975 ft | 350 kts | 17° |
| 2026-05-06 17:34 | 54.87745 | 12.02035 | 15590 ft | 347 kts | 17° |
| 2026-05-06 17:34 | 54.90035 | 12.03418 | 15190 ft | 344 kts | 18° |
| 2026-05-06 17:35 | 54.92253 | 12.04761 | 14815 ft | 342 kts | 17° |
| 2026-05-06 17:35 | 54.94488 | 12.06113 | 14432 ft | 339 kts | 18° |
| 2026-05-06 17:35 | 54.96698 | 12.07452 | 14044 ft | 336 kts | 18° |
| 2026-05-06 17:36 | 55.01051 | 12.10095 | 13265 ft | 330 kts | 18° |
| 2026-05-06 17:36 | 55.03226 | 12.11418 | 12865 ft | 327 kts | 18° |
| 2026-05-06 17:36 | 55.05353 | 12.12713 | 12470 ft | 325 kts | 18° |
| 2026-05-06 17:36 | 55.07451 | 12.13992 | 12065 ft | 322 kts | 18° |
| 2026-05-06 17:37 | 55.09551 | 12.15274 | 11656 ft | 319 kts | 18° |
| 2026-05-06 17:37 | 55.11642 | 12.16551 | 11251 ft | 316 kts | 18° |
| 2026-05-06 17:37 | 55.13706 | 12.17817 | 10963 ft | 309 kts | 19° |
| 2026-05-06 17:37 | 55.15649 | 12.19014 | 10729 ft | 294 kts | 19° |
| 2026-05-06 17:38 | 55.17537 | 12.20176 | 10353 ft | 284 kts | 19° |
| 2026-05-06 17:38 | 55.19402 | 12.21321 | 9800 ft | 281 kts | 19° |
| 2026-05-06 17:38 | 55.21216 | 12.22435 | 9239 ft | 278 kts | 19° |
| 2026-05-06 17:38 | 55.23020 | 12.23546 | 8668 ft | 275 kts | 19° |
| 2026-05-06 17:39 | 55.24812 | 12.24649 | 8124 ft | 273 kts | 19° |
| 2026-05-06 17:39 | 55.26573 | 12.25734 | 7745 ft | 268 kts | 20° |
| 2026-05-06 17:39 | 55.28319 | 12.26809 | 7198 ft | 265 kts | 20° |
| 2026-05-06 17:39 | 55.30045 | 12.27876 | 6605 ft | 262 kts | 20° |
| 2026-05-06 17:40 | 55.31743 | 12.28926 | 6011 ft | 259 kts | 20° |
| 2026-05-06 17:40 | 55.33435 | 12.29972 | 5415 ft | 261 kts | 21° |
| 2026-05-06 17:40 | 55.35139 | 12.31027 | 4830 ft | 267 kts | 21° |
| 2026-05-06 17:40 | 55.36885 | 12.32110 | 4254 ft | 268 kts | 21° |
| 2026-05-06 17:41 | 55.38639 | 12.33197 | 3713 ft | 262 kts | 22° |
| 2026-05-06 17:41 | 55.40318 | 12.34237 | 3317 ft | 251 kts | 22° |
| 2026-05-06 17:41 | 55.41901 | 12.35219 | 3026 ft | 238 kts | 22° |
| 2026-05-06 17:41 | 55.43365 | 12.36317 | 2943 ft | 214 kts | 32° |
| 2026-05-06 17:42 | 55.44562 | 12.37760 | 2942 ft | 208 kts | 42° |
| 2026-05-06 17:42 | 55.45658 | 12.39411 | 2946 ft | 207 kts | 44° |
| 2026-05-06 17:42 | 55.46732 | 12.41075 | 2948 ft | 208 kts | 43° |
| 2026-05-06 17:42 | 55.47833 | 12.42728 | 2935 ft | 208 kts | 43° |
| 2026-05-06 17:43 | 55.48918 | 12.44366 | 2723 ft | 207 kts | 43° |
| 2026-05-06 17:43 | 55.50001 | 12.46032 | 2428 ft | 206 kts | 44° |
| 2026-05-06 17:43 | 55.51054 | 12.47667 | 2147 ft | 200 kts | 44° |
| 2026-05-06 17:43 | 55.52070 | 12.49248 | 1872 ft | 190 kts | 44° |
| 2026-05-06 17:44 | 55.53016 | 12.50714 | 1692 ft | 171 kts | 45° |
| 2026-05-06 17:44 | 55.53869 | 12.52037 | 1451 ft | 156 kts | 45° |
| 2026-05-06 17:44 | 55.54639 | 12.53235 | 1209 ft | 143 kts | 45° |
| 2026-05-06 17:44 | 55.55352 | 12.54340 | 976 ft | 131 kts | 45° |
| 2026-05-06 17:45 | 55.56027 | 12.55388 | 798 ft | 130 kts | 45° |
| 2026-05-06 17:45 | 55.56709 | 12.56438 | 670 ft | 130 kts | 45° |
| 2026-05-06 17:45 | 55.57400 | 12.57506 | 520 ft | 131 kts | 46° |
| 2026-05-06 17:45 | 55.58068 | 12.58570 | 329 ft | 132 kts | 45° |
| 2026-05-06 17:46 | 55.58768 | 12.59642 | 156 ft | 132 kts | 45° |
| 2026-05-06 17:46 | 55.59459 | 12.60713 | 23 ft | 132 kts | 45° |
| 2026-05-06 17:46 | 55.59892 | 12.61393 | 12 ft | 115 kts | 42° |
| 2026-05-06 17:46 | 55.60496 | 12.62418 | 15 ft | 65 kts | 28° |
| 2026-05-06 17:47 | 55.60820 | 12.62785 | 18 ft | 52 kts | 26° |
| 2026-05-06 17:47 | 55.60974 | 12.62867 | 21 ft | 8 kts | 11° |
| 2026-05-06 17:47 | 55.61038 | 12.62891 | 21 ft | 9 kts | 10° |
| 2026-05-06 17:47 | 55.61107 | 12.62921 | 22 ft | 10 kts | 20° |
| 2026-05-06 17:48 | 55.61170 | 12.62990 | 22 ft | 11 kts | 41° |
| 2026-05-06 17:48 | 55.61238 | 12.63094 | 20 ft | 14 kts | 40° |
| 2026-05-06 17:48 | 55.61312 | 12.63209 | 21 ft | 14 kts | 40° |
| 2026-05-06 17:48 | 55.61388 | 12.63326 | 22 ft | 14 kts | 40° |
| 2026-05-06 17:49 | 55.61466 | 12.63448 | 22 ft | 15 kts | 41° |
| 2026-05-06 17:49 | 55.61548 | 12.63575 | 23 ft | 15 kts | 40° |
| 2026-05-06 17:49 | 55.61630 | 12.63699 | 24 ft | 15 kts | 40° |
| 2026-05-06 17:49 | 55.61715 | 12.63832 | 22 ft | 17 kts | 41° |
| 2026-05-06 17:50 | 55.61809 | 12.63978 | 22 ft | 18 kts | 41° |
| 2026-05-06 17:50 | 55.61917 | 12.64107 | 18 ft | 20 kts | 26° |
| 2026-05-06 17:50 | 55.62046 | 12.64217 | 16 ft | 21 kts | 25° |
| 2026-05-06 17:50 | 55.62161 | 12.64314 | 15 ft | 13 kts | 24° |
| 2026-05-06 17:51 | 55.62214 | 12.64359 | 15 ft | 1 kts | 24° |
| 2026-05-06 17:51 | 55.62233 | 12.64372 | 15 ft | 4 kts | 18° |
| 2026-05-06 17:51 | 55.62281 | 12.64397 | 15 ft | 10 kts | 15° |
| 2026-05-06 17:51 | 55.62367 | 12.64438 | 15 ft | 13 kts | 15° |
| 2026-05-06 17:52 | 55.62458 | 12.64482 | 17 ft | 12 kts | 8° |
| 2026-05-06 17:52 | 55.62527 | 12.64393 | 17 ft | 14 kts | 302° |
| 2026-05-06 17:52 | 55.62583 | 12.64240 | 17 ft | 15 kts | 302° |
| 2026-05-06 17:52 | 55.62642 | 12.64081 | 16 ft | 16 kts | 303° |
| 2026-05-06 17:53 | 55.62707 | 12.63920 | 15 ft | 10 kts | 323° |
| 2026-05-06 17:53 | 55.62776 | 12.63954 | 15 ft | 11 kts | 34° |
| 2026-05-06 17:53 | 55.62830 | 12.64059 | 16 ft | 11 kts | 62° |
| 2026-05-06 17:53 | 55.62829 | 12.64172 | 18 ft | 8 kts | 122° |
| 2026-05-06 17:54 | 55.62810 | 12.64222 | 18 ft | 0 kts | 122° |